Time;durP1;ratioP1;P1;durP2;ratioP2;P2;SDS_P1;SDS_P2;PMS_P1;PMS_P2;Temp;Humidity;BMP_temperature;BMP_pressure;BME280_temperature;BME280_humidity;BME280_pressure;Samples;Min_cycle;Max_cycle;Signal;HPM_P1;HPM_P2
2022/09/11 00:00:12;;;;;;;120.53;32.88;;;13.60;99.90;;;;;;4923689;29;20141;-76
2022/09/11 00:02:37;;;;;;;119.15;32.78;;;13.60;99.90;;;;;;4938452;29;20047;-76
2022/09/11 00:05:03;;;;;;;124.32;32.47;;;13.60;99.90;;;;;;4938293;29;20053;-75
2022/09/11 00:07:29;;;;;;;122.50;32.80;;;13.60;99.90;;;;;;4938807;29;20051;-74
2022/09/11 00:09:55;;;;;;;118.07;32.03;;;13.60;99.90;;;;;;4957121;29;20071;-75
2022/09/11 00:12:21;;;;;;;126.15;34.17;;;13.50;99.90;;;;;;4961365;29;20130;-74
2022/09/11 00:14:46;;;;;;;112.47;31.58;;;13.50;99.90;;;;;;4958395;29;20488;-76
2022/09/11 00:17:14;;;;;;;124.40;33.28;;;13.50;99.90;;;;;;4956416;29;20051;-76
2022/09/11 00:19:41;;;;;;;127.13;34.03;;;13.50;99.90;;;;;;4939361;29;20138;-76
2022/09/11 00:22:06;;;;;;;116.97;32.58;;;13.50;99.90;;;;;;4938910;29;20059;-76
2022/09/11 00:24:32;;;;;;;125.82;34.00;;;13.50;99.90;;;;;;4938684;29;20067;-76
2022/09/11 00:26:58;;;;;;;129.93;33.15;;;13.50;99.90;;;;;;4937758;29;20043;-76
2022/09/11 00:29:23;;;;;;;121.28;33.58;;;13.50;99.90;;;;;;4955113;29;20067;-75
2022/09/11 00:31:49;;;;;;;120.03;32.63;;;13.50;99.90;;;;;;4938395;29;20106;-75
2022/09/11 00:34:15;;;;;;;124.03;32.92;;;13.40;99.90;;;;;;4955232;28;20323;-76
2022/09/11 00:36:40;;;;;;;139.55;35.22;;;13.40;99.90;;;;;;4938665;29;20119;-75
2022/09/11 00:39:06;;;;;;;128.73;33.72;;;13.40;99.90;;;;;;4956629;29;20047;-77
2022/09/11 00:41:38;;;;;;;135.95;34.22;;;13.40;99.90;;;;;;4940347;29;20083;-77
2022/09/11 00:44:27;;;;;;;120.90;33.05;;;13.30;99.90;;;;;;4939207;29;20055;-76
2022/09/11 00:47:04;;;;;;;133.70;34.10;;;13.30;99.90;;;;;;4938315;29;20086;-76
2022/09/11 00:49:44;;;;;;;;;;;13.30;99.90;;;;;;4956011;29;20083;-76
2022/09/11 00:52:21;;;;;;;120.03;31.95;;;13.30;99.90;;;;;;4954705;29;20130;-77
2022/09/11 00:54:56;;;;;;;123.78;32.20;;;13.30;99.90;;;;;;4955089;29;20388;-77
2022/09/11 00:57:27;;;;;;;139.88;34.28;;;13.30;99.90;;;;;;4954717;29;20051;-77
2022/09/11 00:59:57;;;;;;;133.60;33.45;;;13.30;99.90;;;;;;4954615;29;20114;-77
2022/09/11 01:02:26;;;;;;;113.97;31.20;;;13.30;99.90;;;;;;4954734;29;20134;-77
2022/09/11 01:04:53;;;;;;;143.32;34.75;;;13.20;99.90;;;;;;4937934;29;20380;-77
2022/09/11 01:07:19;;;;;;;;;;;13.30;99.90;;;;;;4938768;29;20387;-77
2022/09/11 01:09:46;;;;;;;123.10;31.13;;;13.20;99.90;;;;;;4921586;29;19926;-77
2022/09/11 01:12:24;;;;;;;134.50;33.17;;;13.20;99.90;;;;;;4953957;29;20066;-76
2022/09/11 01:14:54;;;;;;;134.73;33.70;;;13.20;99.90;;;;;;4937376;29;20078;-76
2022/09/11 01:17:28;;;;;;;148.75;35.38;;;13.20;99.90;;;;;;4937319;29;20476;-76
2022/09/11 01:20:05;;;;;;;139.10;36.92;;;13.20;99.90;;;;;;4937297;29;20190;-76
2022/09/11 01:23:01;;;;;;;149.65;34.90;;;13.20;99.90;;;;;;4954359;29;20059;-77
2022/09/11 01:25:40;;;;;;;126.40;34.08;;;13.20;99.90;;;;;;4954595;29;20400;-77
2022/09/11 01:28:45;;;;;;;149.45;34.08;;;13.20;99.90;;;;;;4955232;29;20181;-77
2022/09/11 01:31:14;;;;;;;129.18;32.78;;;13.10;99.90;;;;;;4951821;28;20094;-77
2022/09/11 01:33:43;;;;;;;132.63;33.20;;;13.10;99.90;;;;;;4937513;29;20079;-76
2022/09/11 01:36:34;;;;;;;139.25;33.33;;;13.10;99.90;;;;;;4954010;29;20040;-76
2022/09/11 01:39:04;;;;;;;141.15;35.08;;;13.00;99.90;;;;;;4921621;29;20071;-77
2022/09/11 01:41:32;;;;;;;140.48;34.90;;;13.00;99.90;;;;;;4954391;29;20102;-76
2022/09/11 01:44:07;;;;;;;140.32;34.08;;;13.00;99.90;;;;;;4937661;29;20051;-75
2022/09/11 01:46:41;;;;;;;146.40;33.80;;;12.90;99.90;;;;;;4937595;29;20487;-76
2022/09/11 01:49:36;;;;;;;150.27;34.13;;;12.90;99.90;;;;;;4925133;29;20058;-75
2022/09/11 01:52:26;;;;;;;152.43;33.33;;;12.90;99.90;;;;;;4957806;29;20055;-76
2022/09/11 01:55:17;;;;;;;145.13;33.30;;;13.00;99.90;;;;;;4958203;29;20391;-75
2022/09/11 01:57:59;;;;;;;159.43;33.78;;;13.00;99.90;;;;;;4950370;28;20063;-75
2022/09/11 02:00:24;;;;;;;160.48;36.10;;;13.00;99.90;;;;;;4957236;28;20055;-76
2022/09/11 02:03:15;;;;;;;183.32;37.60;;;13.00;99.90;;;;;;4957373;29;20055;-76
2022/09/11 02:06:03;;;;;;;156.45;34.70;;;13.00;99.90;;;;;;4957906;29;20459;-75
2022/09/11 02:08:44;;;;;;;138.77;33.00;;;13.00;99.90;;;;;;4940098;29;20047;-75
2022/09/11 02:11:12;;;;;;;151.45;33.22;;;12.90;99.90;;;;;;4955869;28;20508;-76
2022/09/11 02:14:20;;;;;;;141.02;34.70;;;12.90;99.90;;;;;;4923462;29;20452;-77
2022/09/11 02:16:56;;;;;;;181.13;38.40;;;12.90;99.90;;;;;;4958030;28;20420;-76
2022/09/11 02:19:26;;;;;;;167.10;37.22;;;12.90;99.90;;;;;;4957226;29;20055;-77
2022/09/11 02:21:52;;;;;;;152.70;35.60;;;12.90;99.90;;;;;;4957061;28;20057;-78
2022/09/11 02:24:21;;;;;;;145.88;34.30;;;12.90;99.90;;;;;;4957654;29;20051;-77
2022/09/11 02:27:19;;;;;;;157.85;35.45;;;12.80;99.90;;;;;;4939761;29;20429;-77
2022/09/11 02:29:45;;;;;;;155.88;34.17;;;12.80;99.90;;;;;;4940231;29;20062;-77
2022/09/11 02:32:11;;;;;;;161.45;36.40;;;12.80;99.90;;;;;;4957728;29;20133;-77
2022/09/11 02:34:39;;;;;;;155.95;35.72;;;12.80;99.90;;;;;;4957609;29;20090;-76
2022/09/11 02:37:20;;;;;;;134.65;33.03;;;12.80;99.90;;;;;;4940350;29;20094;-76
2022/09/11 02:40:01;;;;;;;146.23;34.92;;;12.80;99.90;;;;;;4956848;29;20054;-76
2022/09/11 02:42:38;;;;;;;145.68;34.72;;;12.70;99.90;;;;;;4940057;28;20538;-76
2022/09/11 02:45:19;;;;;;;147.75;33.78;;;12.70;99.90;;;;;;4923977;29;20074;-78
2022/09/11 02:48:18;;;;;;;153.40;35.38;;;12.70;99.90;;;;;;4957296;29;20044;-77
2022/09/11 02:51:03;;;;;;;141.57;33.25;;;12.70;99.90;;;;;;4957125;29;20051;-77
2022/09/11 02:53:45;;;;;;;142.40;34.80;;;12.70;99.90;;;;;;4940763;29;20055;-77
2022/09/11 02:56:31;;;;;;;146.68;33.95;;;12.70;99.90;;;;;;4939956;29;20501;-78
2022/09/11 02:59:16;;;;;;;147.20;32.67;;;12.60;99.90;;;;;;4939039;29;20110;-77
2022/09/11 03:01:53;;;;;;;130.80;31.45;;;12.60;99.90;;;;;;4957433;29;20047;-77
2022/09/11 03:04:23;;;;;;;115.05;27.95;;;12.60;99.90;;;;;;4945288;29;20106;-76
2022/09/11 03:06:50;;;;;;;97.72;25.15;;;12.60;99.90;;;;;;4963992;28;20083;-76
2022/09/11 03:09:17;;;;;;;85.25;23.88;;;12.50;99.90;;;;;;4947770;29;20057;-77
2022/09/11 03:11:43;;;;;;;79.43;22.10;;;12.40;99.90;;;;;;4960251;29;20055;-76
2022/09/11 03:14:10;;;;;;;79.18;22.10;;;12.40;99.90;;;;;;4957727;29;20067;-78
2022/09/11 03:16:35;;;;;;;75.95;21.20;;;12.30;99.90;;;;;;4955549;28;20083;-77
2022/09/11 03:19:02;;;;;;;67.20;19.55;;;12.30;99.90;;;;;;4956517;29;20058;-77
2022/09/11 03:21:28;;;;;;;63.78;19.05;;;12.30;99.90;;;;;;4939823;29;20051;-77
2022/09/11 03:23:54;;;;;;;65.18;19.38;;;12.20;99.90;;;;;;4923294;29;20047;-78
2022/09/11 03:26:19;;;;;;;55.88;19.40;;;12.20;99.90;;;;;;4923794;29;20043;-79
2022/09/11 03:28:46;;;;;;;51.50;17.92;;;12.10;99.90;;;;;;4955871;29;20051;-78
2022/09/11 03:31:12;;;;;;;58.72;19.45;;;12.10;99.90;;;;;;4938579;29;20449;-80
2022/09/11 03:33:38;;;;;;;98.80;20.85;;;12.10;99.90;;;;;;4955907;29;20057;-78
2022/09/11 03:36:04;;;;;;;76.57;22.77;;;12.10;99.90;;;;;;4938607;29;20126;-77
2022/09/11 03:38:31;;;;;;;66.27;22.50;;;12.00;99.90;;;;;;4955856;29;20051;-77
2022/09/11 03:40:57;;;;;;;76.60;23.92;;;12.00;99.90;;;;;;4938742;28;20298;-77
2022/09/11 03:43:23;;;;;;;75.95;22.50;;;12.00;99.90;;;;;;4956051;29;20055;-77
2022/09/11 03:45:50;;;;;;;78.68;24.85;;;12.00;99.90;;;;;;4923209;29;20472;-76
2022/09/11 03:48:16;;;;;;;;;;;12.00;99.90;;;;;;4938820;29;20047;-77
2022/09/11 03:50:44;;;;;;;70.15;21.45;;;12.00;99.90;;;;;;4955400;29;19990;-76
2022/09/11 03:53:10;;;;;;;75.05;22.85;;;12.00;99.90;;;;;;4957262;29;20114;-78
2022/09/11 03:55:37;;;;;;;85.93;25.55;;;12.00;99.90;;;;;;4924411;29;20043;-77
2022/09/11 03:58:03;;;;;;;80.28;24.33;;;12.00;99.90;;;;;;4938333;29;20110;-78
2022/09/11 04:00:29;;;;;;;84.68;24.58;;;11.90;99.90;;;;;;4938303;29;20087;-77
2022/09/11 04:02:54;;;;;;;83.32;23.60;;;11.90;99.90;;;;;;4937885;29;20051;-76
2022/09/11 04:05:23;;;;;;;81.85;23.98;;;11.90;99.90;;;;;;4938270;29;20111;-76
2022/09/11 04:07:48;;;;;;;72.90;22.58;;;11.90;99.90;;;;;;4938178;29;20043;-77
2022/09/11 04:10:14;;;;;;;81.53;23.58;;;11.90;99.90;;;;;;4954308;28;20055;-79
2022/09/11 04:12:40;;;;;;;92.88;25.23;;;11.90;99.90;;;;;;4938548;29;20481;-77
2022/09/11 04:15:07;;;;;;;85.03;24.48;;;11.90;99.90;;;;;;4938775;29;20078;-77
2022/09/11 04:17:33;;;;;;;98.18;25.50;;;11.90;99.90;;;;;;4921939;29;20106;-77
2022/09/11 04:19:59;;;;;;;64.85;19.63;;;11.80;99.90;;;;;;4921969;29;20055;-76
2022/09/11 04:22:25;;;;;;;61.78;20.08;;;11.80;99.90;;;;;;4922153;29;20058;-76
2022/09/11 04:24:51;;;;;;;69.25;19.65;;;11.80;99.90;;;;;;4956547;29;20047;-76
2022/09/11 04:27:19;;;;;;;79.72;18.52;;;11.70;99.90;;;;;;4954772;29;20514;-79
2022/09/11 04:29:45;;;;;;;187.20;21.08;;;11.60;99.90;;;;;;4955078;29;20408;-76
2022/09/11 04:32:12;;;;;;;48.70;16.27;;;11.50;99.90;;;;;;4938509;28;20058;-77
2022/09/11 04:34:37;;;;;;;65.82;18.45;;;11.50;99.90;;;;;;4938321;29;20094;-77
2022/09/11 04:37:03;;;;;;;64.15;16.75;;;11.50;99.90;;;;;;4938187;29;20047;-76
2022/09/11 04:39:29;;;;;;;57.95;17.88;;;11.50;99.90;;;;;;4921835;29;20384;-75
2022/09/11 04:41:56;;;;;;;87.03;18.87;;;11.40;99.90;;;;;;4956131;29;20176;-76
2022/09/11 04:44:23;;;;;;;57.08;19.30;;;11.40;99.90;;;;;;4956136;29;20093;-76
2022/09/11 04:46:49;;;;;;;73.30;21.23;;;11.40;99.90;;;;;;4956469;29;20444;-75
2022/09/11 04:49:15;;;;;;;54.20;19.60;;;11.40;99.90;;;;;;4939249;29;20051;-77
2022/09/11 04:51:42;;;;;;;49.30;19.13;;;11.30;99.90;;;;;;4957487;29;20050;-75
2022/09/11 04:54:14;;;;;;;50.60;18.50;;;11.30;99.90;;;;;;4956188;28;20100;-74
2022/09/11 04:56:40;;;;;;;52.00;19.45;;;11.40;99.90;;;;;;4955624;28;20055;-75
2022/09/11 04:59:14;;;;;;;51.55;18.63;;;11.30;99.90;;;;;;4923443;29;20066;-76
2022/09/11 05:01:42;;;;;;;56.50;20.30;;;11.40;99.90;;;;;;4937966;29;20055;-77
2022/09/11 05:04:13;;;;;;;55.13;19.80;;;11.40;99.90;;;;;;4955641;29;20055;-76
2022/09/11 05:06:40;;;;;;;52.88;19.75;;;11.40;99.90;;;;;;4923333;29;20062;-75
2022/09/11 05:09:08;;;;;;;51.65;19.05;;;11.40;99.90;;;;;;4955133;29;20223;-75
2022/09/11 05:11:35;;;;;;;50.50;18.85;;;11.40;99.90;;;;;;4938011;29;20119;-75
2022/09/11 05:14:01;;;;;;;55.20;19.45;;;11.30;99.90;;;;;;4955839;29;20122;-76
2022/09/11 05:16:28;;;;;;;53.22;19.70;;;11.40;99.90;;;;;;4921768;29;20408;-76
2022/09/11 05:18:55;;;;;;;57.05;21.27;;;11.40;99.90;;;;;;4954695;28;20039;-75
2022/09/11 05:21:23;;;;;;;58.28;20.45;;;11.50;99.90;;;;;;4937885;29;20051;-79
2022/09/11 05:23:51;;;;;;;58.33;19.00;;;11.50;99.90;;;;;;4959225;28;20127;-73
2022/09/11 05:26:19;;;;;;;63.42;21.02;;;11.40;99.90;;;;;;4925925;29;20047;-76
2022/09/11 05:28:45;;;;;;;56.47;19.25;;;11.50;99.90;;;;;;4941988;29;20464;-75
2022/09/11 05:31:16;;;;;;;54.03;19.23;;;11.50;99.90;;;;;;4941673;29;20122;-75
2022/09/11 05:33:45;;;;;;;49.92;19.27;;;11.50;99.90;;;;;;4941770;29;20054;-75
2022/09/11 05:36:12;;;;;;;54.58;18.58;;;11.50;99.90;;;;;;4958231;29;20039;-76
2022/09/11 05:38:39;;;;;;;51.38;20.00;;;11.50;99.90;;;;;;4957957;29;20211;-76
2022/09/11 05:41:07;;;;;;;47.67;18.95;;;11.50;99.90;;;;;;4958369;29;20054;-75
2022/09/11 05:43:34;;;;;;;46.47;18.05;;;11.40;99.90;;;;;;4941315;29;20130;-77
2022/09/11 05:46:00;;;;;;;46.80;18.88;;;11.50;99.90;;;;;;4958568;29;20130;-75
2022/09/11 05:48:31;;;;;;;48.00;17.35;;;11.40;99.90;;;;;;4924819;29;20058;-75
2022/09/11 05:51:02;;;;;;;47.28;18.50;;;11.50;99.90;;;;;;4958564;29;20471;-76
2022/09/11 05:53:32;;;;;;;51.72;19.38;;;11.50;99.90;;;;;;4941308;29;20126;-76
2022/09/11 05:56:05;;;;;;;50.65;18.55;;;11.50;99.90;;;;;;4941584;29;20050;-76
2022/09/11 05:58:31;;;;;;;47.70;19.15;;;11.50;99.90;;;;;;4957191;28;20134;-74
2022/09/11 06:01:18;;;;;;;46.83;18.80;;;11.60;99.90;;;;;;4958212;29;20427;-75
2022/09/11 06:03:46;;;;;;;;;;;11.60;99.90;;;;;;4925018;29;20055;-75
2022/09/11 06:06:12;;;;;;;49.80;18.55;;;11.70;99.90;;;;;;4950927;29;19922;-76
2022/09/11 06:08:39;;;;;;;51.10;19.77;;;11.70;99.90;;;;;;4966145;29;20065;-75
2022/09/11 06:11:06;;;;;;;51.25;19.23;;;11.70;99.90;;;;;;4942763;29;20047;-76
2022/09/11 06:13:40;;;;;;;47.78;19.48;;;11.80;99.90;;;;;;4924939;29;20059;-77
2022/09/11 06:16:25;;;;;;;55.45;20.08;;;11.80;99.90;;;;;;4957840;28;20051;-76
2022/09/11 06:18:53;;;;;;;52.42;19.55;;;11.90;99.90;;;;;;4941015;29;20055;-75
2022/09/11 06:21:21;;;;;;;52.35;19.45;;;11.90;99.90;;;;;;4957861;28;20106;-76
2022/09/11 06:23:48;;;;;;;52.33;19.85;;;11.90;99.90;;;;;;4957941;29;20055;-76
2022/09/11 06:26:16;;;;;;;49.97;19.13;;;12.00;99.90;;;;;;4957882;29;20047;-75
2022/09/11 06:28:42;;;;;;;56.28;20.50;;;12.10;99.90;;;;;;4957711;29;20050;-76
2022/09/11 06:31:15;;;;;;;55.38;20.85;;;12.20;99.90;;;;;;4940624;29;20042;-76
2022/09/11 06:33:41;;;;;;;52.95;21.50;;;12.20;99.90;;;;;;4958127;28;20066;-76
2022/09/11 06:36:22;;;;;;;52.70;20.90;;;12.30;99.90;;;;;;4940373;29;20039;-75
2022/09/11 06:38:53;;;;;;;55.47;21.35;;;12.40;99.90;;;;;;4940836;29;20051;-78
2022/09/11 06:41:19;;;;;;;48.28;19.27;;;12.50;99.90;;;;;;4940539;29;20433;-78
2022/09/11 06:43:45;;;;;;;50.70;20.20;;;12.70;99.90;;;;;;4956735;28;20059;-76
2022/09/11 06:46:14;;;;;;;50.90;20.55;;;12.80;99.90;;;;;;4939711;29;20039;-77
2022/09/11 06:48:41;;;;;;;44.10;19.08;;;13.00;99.90;;;;;;4956508;29;20047;-78
2022/09/11 06:51:12;;;;;;;49.50;20.63;;;13.10;99.90;;;;;;4958011;29;20115;-77
2022/09/11 06:53:39;;;;;;;63.20;23.00;;;13.20;99.90;;;;;;4957207;29;20050;-77
2022/09/11 06:56:06;;;;;;;58.03;22.70;;;13.30;99.90;;;;;;4957013;29;20224;-78
2022/09/11 06:58:32;;;;;;;63.50;23.38;;;13.30;99.90;;;;;;4939913;29;20134;-79
2022/09/11 07:01:05;;;;;;;68.63;25.10;;;13.40;99.90;;;;;;4939501;29;20054;-77
2022/09/11 07:03:32;;;;;;;65.50;24.90;;;13.50;99.90;;;;;;4957397;29;20153;-79
2022/09/11 07:05:58;;;;;;;71.72;25.23;;;13.60;99.90;;;;;;4939421;29;20074;-77
2022/09/11 07:08:24;;;;;;;71.82;26.70;;;13.70;99.90;;;;;;4939484;29;20051;-76
2022/09/11 07:10:50;;;;;;;69.05;24.90;;;13.80;99.90;;;;;;4924286;29;20051;-77
2022/09/11 07:13:16;;;;;;;70.63;25.75;;;13.90;99.90;;;;;;4940530;29;20059;-76
2022/09/11 07:15:42;;;;;;;62.45;24.83;;;14.00;99.90;;;;;;4923801;29;20054;-79
2022/09/11 07:18:08;;;;;;;69.38;24.90;;;14.10;99.90;;;;;;4939616;29;20070;-76
2022/09/11 07:20:34;;;;;;;62.13;25.08;;;14.20;99.90;;;;;;4940255;29;20043;-79
2022/09/11 07:22:59;;;;;;;60.03;24.23;;;14.30;99.90;;;;;;4956706;29;20055;-78
2022/09/11 07:25:26;;;;;;;59.75;24.73;;;14.50;99.90;;;;;;4939874;29;20472;-77
2022/09/11 07:27:52;;;;;;;63.72;25.23;;;14.60;99.90;;;;;;4957050;29;20452;-78
2022/09/11 07:30:18;;;;;;;61.72;24.88;;;14.70;99.90;;;;;;4956536;29;20051;-77
2022/09/11 07:32:45;;;;;;;65.03;27.53;;;14.80;99.90;;;;;;4923699;29;20129;-77
2022/09/11 07:35:13;;;;;;;63.45;26.20;;;14.90;99.90;;;;;;4939603;29;20122;-76
2022/09/11 07:37:39;;;;;;;63.63;26.58;;;15.00;99.90;;;;;;4957708;29;20051;-77
2022/09/11 07:40:05;;;;;;;66.97;27.15;;;15.20;99.90;;;;;;4925561;29;20066;-77
2022/09/11 07:42:32;;;;;;;57.22;24.65;;;15.30;99.90;;;;;;4940429;29;20051;-79
2022/09/11 07:44:58;;;;;;;56.63;24.98;;;15.30;99.90;;;;;;4957563;28;20043;-77
2022/09/11 07:47:24;;;;;;;56.05;26.13;;;15.40;99.90;;;;;;4925465;29;20051;-76
2022/09/11 07:49:51;;;;;;;51.10;23.33;;;15.60;99.90;;;;;;4955397;29;20419;-77
2022/09/11 07:52:19;;;;;;;56.05;23.98;;;15.70;99.90;;;;;;4956108;29;20138;-78
2022/09/11 07:54:45;;;;;;;53.47;22.67;;;15.80;99.90;;;;;;4941255;29;20047;-76
2022/09/11 07:57:11;;;;;;;55.88;23.10;;;16.00;99.90;;;;;;4942540;29;20047;-78
2022/09/11 07:59:38;;;;;;;48.95;23.35;;;16.00;99.90;;;;;;4956571;29;20348;-79
2022/09/11 08:02:04;;;;;;;54.63;22.90;;;16.10;99.90;;;;;;4941209;29;20047;-77
2022/09/11 08:04:31;;;;;;;50.60;23.20;;;16.20;99.90;;;;;;4939890;29;20093;-79
2022/09/11 08:06:57;;;;;;;47.60;22.40;;;16.20;99.90;;;;;;4940418;29;20459;-78
2022/09/11 08:09:25;;;;;;;51.63;23.35;;;16.30;99.90;;;;;;4942290;29;20047;-78
2022/09/11 08:11:57;;;;;;;45.85;21.98;;;16.40;99.90;;;;;;4926134;29;20047;-77
2022/09/11 08:14:26;;;;;;;48.85;22.05;;;16.50;99.90;;;;;;4927157;29;20055;-77
2022/09/11 08:16:53;;;;;;;44.55;20.95;;;16.50;99.90;;;;;;4934588;29;20047;-78
2022/09/11 08:19:20;;;;;;;;;;;16.60;99.90;;;;;;4931364;29;20058;-75
2022/09/11 08:21:47;;;;;;;47.28;20.08;;;16.80;99.90;;;;;;4968054;29;19954;-77
2022/09/11 08:24:15;;;;;;;39.58;19.88;;;16.80;99.90;;;;;;4921172;29;20040;-77
2022/09/11 08:26:42;;;;;;;43.28;19.95;;;17.00;99.90;;;;;;4967381;28;20085;-79
2022/09/11 08:29:08;;;;;;;39.60;19.48;;;17.10;99.90;;;;;;4950998;29;20062;-78
2022/09/11 08:31:35;;;;;;;35.47;18.50;;;17.10;99.90;;;;;;4934229;29;20051;-78
2022/09/11 08:34:00;;;;;;;;;;;17.10;99.90;;;;;;4951905;29;20054;-78
2022/09/11 08:36:28;;;;;;;38.47;18.20;;;17.30;99.90;;;;;;4949033;29;19922;-75
2022/09/11 08:38:54;;;;;;;41.25;18.95;;;17.50;99.90;;;;;;4966675;29;20054;-76
2022/09/11 08:41:22;;;;;;;33.05;16.77;;;17.70;99.90;;;;;;4967405;29;20052;-76
2022/09/11 08:44:10;;;;;;;35.75;15.60;;;17.90;99.90;;;;;;4948741;29;20083;-75
2022/09/11 08:46:41;;;;;;;30.13;13.82;;;18.30;99.90;;;;;;4936427;29;20055;-74
2022/09/11 08:49:46;;;;;;;26.00;13.50;;;18.50;99.90;;;;;;4951769;29;20412;-77
2022/09/11 08:52:15;;;;;;;28.52;14.18;;;18.60;99.90;;;;;;4974005;29;20043;-76
2022/09/11 08:54:44;;;;;;;24.60;12.98;;;18.60;99.90;;;;;;4977675;28;20031;-77
2022/09/11 08:57:39;;;;;;;21.02;10.40;;;18.60;99.90;;;;;;4980681;28;20031;-74
2022/09/11 09:00:15;;;;;;;22.65;11.60;;;18.80;99.90;;;;;;4980074;28;20058;-76
2022/09/11 09:02:51;;;;;;;25.50;12.30;;;18.80;99.90;;;;;;4959834;29;20055;-80
2022/09/11 09:05:26;;;;;;;26.30;12.43;;;18.90;99.90;;;;;;4948549;29;20058;-76
2022/09/11 09:08:03;;;;;;;24.38;12.05;;;19.00;99.90;;;;;;4965167;28;20116;-74
2022/09/11 09:11:06;;;;;;;21.88;11.25;;;19.10;99.90;;;;;;4963579;29;20047;-75
2022/09/11 09:13:44;;;;;;;22.95;9.65;;;19.30;99.90;;;;;;4978066;29;20059;-73
2022/09/11 09:16:55;;;;;;;19.13;9.02;;;19.40;99.90;;;;;;4975609;29;20055;-75
2022/09/11 09:19:33;;;;;;;20.95;9.38;;;19.60;99.90;;;;;;4973473;29;20063;-73
2022/09/11 09:22:17;;;;;;;22.27;10.45;;;20.00;99.90;;;;;;4976321;29;20047;-76
2022/09/11 09:24:59;;;;;;;25.70;11.00;;;20.10;99.90;;;;;;4957852;29;20071;-76
2022/09/11 09:27:32;;;;;;;24.83;11.15;;;20.10;99.90;;;;;;4971032;28;20055;-75
2022/09/11 09:30:04;;;;;;;21.95;10.57;;;20.10;99.90;;;;;;4952659;29;20050;-74
2022/09/11 09:32:35;;;;;;;25.13;11.23;;;20.10;99.90;;;;;;4970000;28;20051;-75
2022/09/11 09:35:09;;;;;;;19.25;9.30;;;20.00;99.90;;;;;;4951223;29;20039;-73
2022/09/11 09:37:38;;;;;;;21.23;10.30;;;19.80;99.90;;;;;;4935552;29;20047;-75
2022/09/11 09:40:08;;;;;;;22.73;10.55;;;19.80;99.90;;;;;;4934778;29;20043;-74
2022/09/11 09:43:05;;;;;;;22.38;9.30;;;19.70;99.90;;;;;;4921063;29;20142;-74
2022/09/11 09:46:11;;;;;;;16.08;8.70;;;19.70;99.90;;;;;;4968903;29;20054;-73
2022/09/11 09:48:39;;;;;;;19.67;10.68;;;19.80;99.90;;;;;;4933685;29;20059;-74
2022/09/11 09:51:09;;;;;;;22.50;9.77;;;19.90;99.90;;;;;;4952863;29;20051;-75
2022/09/11 09:53:49;;;;;;;20.25;9.82;;;19.80;99.90;;;;;;4952121;29;20131;-75
2022/09/11 09:56:19;;;;;;;18.83;9.57;;;19.90;99.90;;;;;;4969409;29;20500;-75
2022/09/11 09:59:17;;;;;;;19.40;9.63;;;19.90;99.90;;;;;;4952693;29;20055;-75
2022/09/11 10:01:44;;;;;;;19.17;9.07;;;20.00;99.90;;;;;;4968802;29;20047;-76
2022/09/11 10:04:20;;;;;;;;;;;20.00;99.90;;;;;;4969640;29;20039;-74
2022/09/11 10:06:49;;;;;;;24.65;8.10;;;20.20;99.90;;;;;;4952297;29;19922;-75
2022/09/11 10:09:28;;;;;;;17.00;9.15;;;20.50;99.90;;;;;;4967768;29;20086;-75
2022/09/11 10:12:07;;;;;;;21.90;8.90;;;20.60;99.90;;;;;;4951323;29;20168;-75
2022/09/11 10:14:41;;;;;;;17.95;9.00;;;20.70;99.90;;;;;;4952312;29;20054;-76
2022/09/11 10:17:22;;;;;;;20.50;8.10;;;20.50;99.90;;;;;;4969017;29;20054;-75
2022/09/11 10:19:49;;;;;;;17.92;7.65;;;20.30;99.90;;;;;;4952099;29;20105;-78
2022/09/11 10:22:31;;;;;;;17.23;5.95;;;20.20;99.90;;;;;;4967896;29;20074;-75
2022/09/11 10:25:18;;;;;;;13.80;6.15;;;19.90;99.90;;;;;;4937294;29;20051;-75
2022/09/11 10:28:07;;;;;;;11.05;5.45;;;19.90;99.90;;;;;;4968637;29;20113;-77
2022/09/11 10:30:38;;;;;;;14.45;5.80;;;20.00;99.90;;;;;;4936120;29;20053;-76
2022/09/11 10:33:45;;;;;;;12.57;5.80;;;20.10;99.90;;;;;;4934707;29;20482;-76
2022/09/11 10:36:11;;;;;;;14.30;6.38;;;20.20;99.90;;;;;;4963328;29;20128;-78
2022/09/11 10:38:46;;;;;;;16.00;7.13;;;20.60;99.90;;;;;;4947528;29;20051;-79
2022/09/11 10:41:12;;;;;;;12.43;5.97;;;20.90;99.90;;;;;;4931370;29;20039;-75
2022/09/11 10:44:09;;;;;;;13.90;6.00;;;20.70;99.90;;;;;;4948037;29;20164;-75
2022/09/11 10:46:40;;;;;;;16.70;5.75;;;20.40;99.90;;;;;;4966717;29;20050;-75
2022/09/11 10:49:07;;;;;;;11.90;6.43;;;20.50;99.90;;;;;;4966555;29;20047;-74
2022/09/11 10:51:41;;;;;;;13.82;5.95;;;20.60;99.90;;;;;;4966541;29;20058;-77
2022/09/11 10:54:21;;;;;;;14.32;5.63;;;20.70;99.90;;;;;;4964482;29;20051;-75
2022/09/11 10:57:16;;;;;;;12.80;4.72;;;20.80;99.90;;;;;;4947746;29;20047;-74
2022/09/11 10:59:50;;;;;;;12.98;4.90;;;20.90;99.90;;;;;;4948582;29;20085;-74
2022/09/11 11:02:41;;;;;;;12.40;4.40;;;21.00;99.90;;;;;;4965180;29;20054;-75
2022/09/11 11:05:19;;;;;;;12.82;5.00;;;21.10;99.90;;;;;;4948300;29;20495;-75
2022/09/11 11:08:03;;;;;;;14.10;4.00;;;21.20;99.90;;;;;;4964966;29;20130;-75
2022/09/11 11:10:49;;;;;;;8.18;3.88;;;21.40;99.90;;;;;;4966183;29;20122;-75
2022/09/11 11:13:41;;;;;;;8.93;3.35;;;21.10;99.90;;;;;;4944720;29;20087;-75
2022/09/11 11:16:35;;;;;;;11.80;3.85;;;21.30;99.90;;;;;;4929567;29;20051;-76
2022/09/11 11:19:39;;;;;;;9.70;3.78;;;21.40;99.90;;;;;;4947335;29;20054;-74
2022/09/11 11:22:39;;;;;;;10.75;3.80;;;21.50;99.90;;;;;;4944400;29;20055;-75
2022/09/11 11:25:26;;;;;;;8.90;3.70;;;21.30;99.90;;;;;;4945022;29;20342;-71
2022/09/11 11:28:05;;;;;;;13.77;4.10;;;21.50;99.90;;;;;;4944424;29;20051;-73
2022/09/11 11:31:03;;;;;;;10.43;3.67;;;21.50;99.90;;;;;;4944847;28;20051;-76
2022/09/11 11:33:44;;;;;;;10.57;2.90;;;21.40;99.90;;;;;;4911752;29;20412;-75
2022/09/11 11:36:31;;;;;;;8.93;2.60;;;21.30;99.90;;;;;;4946267;29;20061;-76
2022/09/11 11:39:37;;;;;;;8.05;3.45;;;21.30;99.90;;;;;;4929386;29;20446;-78
2022/09/11 11:42:14;;;;;;;8.30;3.10;;;21.20;99.90;;;;;;4909168;29;20097;-75
2022/09/11 11:44:53;;;;;;;8.32;2.70;;;21.40;99.90;;;;;;4924258;29;20067;-75
2022/09/11 11:47:24;;;;;;;7.03;2.70;;;21.30;99.90;;;;;;4949876;29;20039;-75
2022/09/11 11:49:55;;;;;;;6.07;2.72;;;21.60;99.90;;;;;;4947948;29;20052;-75
2022/09/11 11:52:30;;;;;;;8.57;2.80;;;21.90;99.90;;;;;;4930551;29;20115;-75
2022/09/11 11:55:19;;;;;;;6.43;2.22;;;21.80;99.90;;;;;;4948437;29;20047;-76
2022/09/11 11:58:14;;;;;;;6.70;2.90;;;;;;;;;;4948617;29;20082;-76
2022/09/11 12:00:46;;;;;;;11.57;2.67;;;21.80;99.90;;;;;;4909624;29;20056;-73
2022/09/11 12:03:23;;;;;;;7.65;3.03;;;21.90;99.90;;;;;;4933040;29;20070;-77
2022/09/11 12:05:49;;;;;;;7.15;2.90;;;22.20;99.90;;;;;;4951163;29;20051;-75
2022/09/11 12:08:16;;;;;;;6.93;3.03;;;;;;;;;;4948440;29;20052;-77
2022/09/11 12:10:52;;;;;;;9.73;2.70;;;22.50;99.90;;;;;;4930813;29;20059;-77
2022/09/11 12:13:19;;;;;;;;;;;22.70;99.90;;;;;;4946369;28;20052;-76
2022/09/11 12:16:04;;;;;;;;;;;22.30;99.90;;;;;;4947653;29;19922;-76
2022/09/11 12:18:30;;;;;;;9.10;3.10;;;22.30;99.90;;;;;;4961580;29;19995;-75
2022/09/11 12:21:21;;;;;;;7.88;3.00;;;22.30;99.90;;;;;;4947108;29;20098;-76
2022/09/11 12:23:49;;;;;;;7.72;2.55;;;22.40;99.90;;;;;;4945868;29;20150;-75
2022/09/11 12:26:19;;;;;;;7.15;2.47;;;22.70;99.90;;;;;;4944112;29;20062;-77
2022/09/11 12:28:45;;;;;;;7.13;2.63;;;22.60;99.90;;;;;;4944189;29;20497;-77
2022/09/11 12:31:13;;;;;;;7.55;2.72;;;22.60;99.90;;;;;;4944971;29;20044;-76
2022/09/11 12:33:42;;;;;;;9.57;2.60;;;22.70;99.90;;;;;;4945029;29;20342;-78
2022/09/11 12:36:28;;;;;;;7.68;2.60;;;22.90;99.90;;;;;;4927550;29;20052;-78
2022/09/11 12:39:00;;;;;;;7.82;3.40;;;23.20;99.90;;;;;;4943754;29;20083;-77
2022/09/11 12:41:33;;;;;;;13.80;4.30;;;23.30;99.90;;;;;;4944556;29;20052;-76
2022/09/11 12:43:59;;;;;;;7.75;3.35;;;23.20;99.90;;;;;;4943638;29;20099;-78
2022/09/11 12:46:26;;;;;;;9.40;3.70;;;22.90;99.90;;;;;;4942430;29;20179;-78
2022/09/11 12:48:57;;;;;;;10.27;4.20;;;22.50;99.90;;;;;;4939451;29;20055;-78
2022/09/11 12:51:32;;;;;;;10.93;3.50;;;22.70;99.90;;;;;;4920481;29;20151;-76
2022/09/11 12:54:01;;;;;;;9.70;3.92;;;22.60;99.90;;;;;;4940842;29;20052;-77
2022/09/11 12:56:31;;;;;;;8.88;3.30;;;22.40;99.90;;;;;;4939733;29;20092;-76
2022/09/11 12:59:04;;;;;;;10.13;5.13;;;22.40;99.90;;;;;;4939560;29;20055;-76